Time;durP1;ratioP1;P1;durP2;ratioP2;P2;SDS_P1;SDS_P2;PMS_P1;PMS_P2;Temp;Humidity;BMP_temperature;BMP_pressure;BME280_temperature;BME280_humidity;BME280_pressure;Samples;Min_cycle;Max_cycle;Signal;HPM_P1;HPM_P2
2021/12/25 00:00:19;;;;;;;6.00;3.20;;;;;;;3.76;100.00;95344.94;4967044;28;20204;-88
2021/12/25 00:02:47;;;;;;;5.67;3.60;;;;;;;3.73;100.00;95341.91;4978392;28;20209;-89
2021/12/25 00:05:15;;;;;;;5.10;3.00;;;;;;;3.71;100.00;95336.78;4973208;28;20254;-88
2021/12/25 00:07:42;;;;;;;3.70;2.77;;;;;;;3.71;100.00;95327.94;4976613;28;20208;-88
2021/12/25 00:10:11;;;;;;;3.33;2.40;;;;;;;3.70;100.00;95329.78;4962689;28;20241;-90
2021/12/25 00:12:38;;;;;;;2.63;2.17;;;;;;;3.72;100.00;95321.56;4953070;28;20200;-90
2021/12/25 00:15:06;;;;;;;2.87;2.10;;;;;;;3.74;100.00;95320.31;4956718;28;20228;-90
2021/12/25 00:17:34;;;;;;;3.43;1.93;;;;;;;3.72;100.00;95306.38;4966168;28;20219;-89
2021/12/25 00:20:02;;;;;;;3.10;1.73;;;;;;;3.75;100.00;95300.59;4961969;28;20209;-87
2021/12/25 00:22:29;;;;;;;4.10;2.17;;;;;;;3.84;100.00;95297.69;4974198;28;20208;-88
2021/12/25 00:24:56;;;;;;;2.13;1.73;;;;;;;3.88;100.00;95310.41;4964799;28;20215;-89
2021/12/25 00:27:41;;;;;;;2.10;1.70;;;;;;;3.88;100.00;95315.75;4973024;28;20213;-85
2021/12/25 00:30:26;;;;;;;2.97;1.50;;;;;;;3.86;100.00;95312.47;4977926;28;20260;-88
2021/12/25 00:33:01;;;;;;;2.30;1.70;;;;;;;3.82;100.00;95305.94;4983529;28;20215;-89
2021/12/25 00:35:28;;;;;;;2.00;1.50;;;;;;;3.76;100.00;95306.75;4960232;28;20274;-88
2021/12/25 00:37:55;;;;;;;2.40;1.50;;;;;;;3.74;100.00;95296.28;4968594;28;20243;-88
2021/12/25 00:40:23;;;;;;;3.10;1.57;;;;;;;3.73;100.00;95301.88;4965779;28;20212;-87
2021/12/25 00:42:51;;;;;;;1.70;1.50;;;;;;;3.73;100.00;95307.19;4960789;28;20216;-89
2021/12/25 00:45:19;;;;;;;2.63;1.53;;;;;;;3.74;100.00;95298.16;4971156;28;20196;-88
2021/12/25 00:47:46;;;;;;;2.60;1.40;;;;;;;3.67;100.00;95298.19;4986552;28;20213;-87
2021/12/25 00:50:13;;;;;;;2.47;1.70;;;;;;;3.63;100.00;95302.31;4971169;28;20227;-89
2021/12/25 00:52:40;;;;;;;2.90;2.03;;;;;;;3.67;100.00;95314.19;4963348;28;20239;-86
2021/12/25 00:55:09;;;;;;;2.53;1.60;;;;;;;3.64;100.00;95308.47;4973187;28;20212;-89
2021/12/25 00:57:38;;;;;;;2.20;1.80;;;;;;;3.60;100.00;95308.06;4974503;28;20295;-90
2021/12/25 01:00:11;;;;;;;3.70;1.80;;;;;;;3.55;100.00;95296.41;4958752;28;20216;-91
2021/12/25 01:02:41;;;;;;;1.90;1.50;;;;;;;3.51;100.00;95288.00;4971246;28;20255;-88
2021/12/25 01:05:10;;;;;;;2.43;1.87;;;;;;;3.53;100.00;95288.59;4965247;28;20239;-89
2021/12/25 01:07:37;;;;;;;2.30;1.60;;;;;;;3.45;100.00;95280.03;4972233;28;20208;-88
2021/12/25 01:10:07;;;;;;;1.90;1.70;;;;;;;3.46;100.00;95287.00;4965763;28;20228;-91
2021/12/25 01:12:50;;;;;;;3.43;1.83;;;;;;;3.52;100.00;95296.81;4965328;28;20212;-90
2021/12/25 01:15:24;;;;;;;1.87;1.57;;;;;;;3.52;100.00;95299.47;4983601;28;20208;-88
2021/12/25 01:21:33;;;;;;;2.37;1.60;;;;;;;3.40;100.00;95296.69;4909935;28;20203;-87
2021/12/25 01:24:24;;;;;;;2.33;1.60;;;;;;;3.37;100.00;95297.09;4959137;28;20205;-90
2021/12/25 01:27:24;;;;;;;2.50;1.67;;;;;;;3.33;100.00;95282.53;4963874;28;20298;-88
2021/12/25 01:30:01;;;;;;;1.97;1.33;;;;;;;3.37;100.00;95281.06;4964121;28;20278;-89
2021/12/25 01:38:55;;;;;;;2.10;1.30;;;;;;;3.45;100.00;95293.34;4982668;28;20258;-87
2021/12/25 01:41:59;;;;;;;1.87;1.10;;;;;;;3.45;100.00;95286.19;4981961;28;20215;-88
2021/12/25 01:47:50;;;;;;;1.20;1.00;;;;;;;3.48;100.00;95291.09;4984923;28;20272;-88
2021/12/25 01:50:18;;;;;;;1.57;1.00;;;;;;;3.48;100.00;95279.59;4970287;28;20220;-88
2021/12/25 01:52:46;;;;;;;2.23;1.10;;;;;;;3.48;100.00;95280.44;4975418;28;20244;-89
2021/12/25 01:55:16;;;;;;;0.90;0.90;;;;;;;3.54;100.00;95274.22;4985382;28;20209;-90
2021/12/25 01:57:43;;;;;;;1.20;0.90;;;;;;;3.55;100.00;95270.53;4971408;28;20282;-90
2021/12/25 02:00:15;;;;;;;2.23;1.00;;;;;;;3.57;100.00;95271.16;4982233;28;20204;-89
2021/12/25 02:02:46;;;;;;;0.83;0.80;;;;;;;3.61;100.00;95264.34;4984070;28;20228;-88
2021/12/25 02:05:13;;;;;;;0.80;0.70;;;;;;;3.66;100.00;95269.84;4970177;28;20271;-88
2021/12/25 02:07:41;;;;;;;0.80;0.80;;;;;;;3.69;100.00;95268.59;4973997;28;20227;-87
2021/12/25 02:10:10;;;;;;;1.13;0.90;;;;;;;3.65;100.00;95262.06;4966469;28;20290;-88
2021/12/25 02:12:37;;;;;;;0.87;0.87;;;;;;;3.65;100.00;95259.41;4970521;28;20298;-89
2021/12/25 02:15:11;;;;;;;0.83;0.80;;;;;;;3.59;100.00;95253.03;4967229;28;20204;-89
2021/12/25 02:17:55;;;;;;;0.70;0.70;;;;;;;3.57;100.00;95259.66;4982594;28;20211;-90
2021/12/25 02:20:52;;;;;;;0.93;0.70;;;;;;;3.60;100.00;95268.03;4979100;28;20258;-90
2021/12/25 02:23:23;;;;;;;1.57;0.90;;;;;;;3.64;100.00;95258.56;4962192;28;20205;-88
2021/12/25 02:25:52;;;;;;;0.70;0.70;;;;;;;3.66;100.00;95261.84;4980506;28;20549;-89
2021/12/25 02:28:20;;;;;;;0.73;0.70;;;;;;;3.72;100.00;95263.66;4968057;28;20251;-90
2021/12/25 02:30:49;;;;;;;0.83;0.80;;;;;;;3.71;100.00;95256.69;4968362;28;20228;-88
2021/12/25 02:33:17;;;;;;;1.03;0.80;;;;;;;3.69;100.00;95256.06;4980015;28;20209;-88
2021/12/25 02:35:46;;;;;;;1.17;1.00;;;;;;;3.65;100.00;95257.56;4960152;28;20232;-88
2021/12/25 02:38:14;;;;;;;1.10;1.00;;;;;;;3.57;100.00;95260.47;4977807;28;20232;-88
2021/12/25 02:40:42;;;;;;;0.90;0.90;;;;;;;3.50;100.00;95257.00;4962382;28;20267;-88
2021/12/25 02:43:09;;;;;;;2.40;1.70;;;;;;;3.50;100.00;95256.16;4966504;28;20213;-89
2021/12/25 02:45:36;;;;;;;1.97;1.60;;;;;;;3.42;100.00;95249.22;4967356;28;20251;-90
2021/12/25 02:48:08;;;;;;;1.23;1.13;;;;;;;3.50;100.00;95254.31;4968572;28;20262;-88
2021/12/25 02:50:37;;;;;;;3.03;1.00;;;;;;;3.50;100.00;95248.16;4969621;28;20223;-89
2021/12/25 02:53:08;;;;;;;1.30;1.10;;;;;;;3.48;100.00;95236.91;4969565;28;20483;-91
2021/12/25 02:55:37;;;;;;;1.03;0.93;;;;;;;3.51;100.00;95245.28;4961380;28;20215;-88
2021/12/25 02:58:05;;;;;;;1.63;1.20;;;;;;;3.49;100.00;95231.34;4964367;28;20208;-88
2021/12/25 03:00:35;;;;;;;1.10;1.00;;;;;;;3.50;100.00;95227.63;4971639;28;20613;-88
2021/12/25 03:03:05;;;;;;;2.47;0.90;;;;;;;3.48;100.00;95232.41;4966563;28;20219;-89
2021/12/25 03:05:32;;;;;;;1.13;0.90;;;;;;;3.52;100.00;95227.44;4965540;28;20255;-89
2021/12/25 03:08:00;;;;;;;1.20;1.10;;;;;;;3.49;100.00;95230.53;4971104;28;20304;-90
2021/12/25 03:10:38;;;;;;;1.27;0.97;;;;;;;3.58;100.00;95219.38;4960705;28;20219;-90
2021/12/25 03:13:18;;;;;;;0.70;0.70;;;;;;;3.81;100.00;95216.19;4961225;28;20216;-87
2021/12/25 03:15:49;;;;;;;0.60;0.60;;;;;;;3.86;100.00;95221.69;4963141;28;20268;-88
2021/12/25 03:18:19;;;;;;;0.97;0.80;;;;;;;3.78;100.00;95224.59;4961117;28;20217;-89
2021/12/25 03:20:48;;;;;;;0.80;0.70;;;;;;;3.76;100.00;95232.81;4980547;28;20211;-88
2021/12/25 03:23:17;;;;;;;0.90;0.70;;;;;;;3.64;100.00;95210.53;4966019;28;20215;-87
2021/12/25 03:25:47;;;;;;;0.70;0.70;;;;;;;3.61;100.00;95216.28;4984775;28;20251;-88
2021/12/25 03:28:16;;;;;;;1.10;0.90;;;;;;;3.61;100.00;95216.28;4962920;28;20247;-89
2021/12/25 03:30:44;;;;;;;1.10;1.00;;;;;;;3.63;100.00;95214.22;4968320;28;20231;-88
2021/12/25 03:33:14;;;;;;;0.80;0.80;;;;;;;3.64;100.00;95205.19;4974988;28;20207;-87
2021/12/25 03:35:42;;;;;;;1.10;0.90;;;;;;;3.65;100.00;95212.19;4965069;28;20233;-89
2021/12/25 03:38:12;;;;;;;1.20;1.10;;;;;;;3.63;100.00;95210.75;4968994;28;20204;-87
2021/12/25 03:40:40;;;;;;;0.60;0.60;;;;;;;3.57;100.00;95196.41;4967639;28;20213;-88
2021/12/25 03:43:08;;;;;;;0.97;0.90;;;;;;;3.55;100.00;95190.47;4967787;28;20296;-88
2021/12/25 03:45:37;;;;;;;0.70;0.70;;;;;;;3.65;100.00;95190.81;4970039;28;20213;-86
2021/12/25 03:48:10;;;;;;;0.60;0.60;;;;;;;3.95;100.00;95192.84;4959388;28;20321;-88
2021/12/25 03:53:38;;;;;;;1.10;1.00;;;;;;;3.90;100.00;95192.69;4957876;28;20217;-88
2021/12/25 03:58:53;;;;;;;0.73;0.73;;;;;;;3.67;100.00;95185.25;4982177;28;20212;-88
2021/12/25 04:01:29;;;;;;;2.03;0.73;;;;;;;3.67;100.00;95194.06;4967326;28;20237;-88
2021/12/25 04:06:51;;;;;;;0.67;0.67;;;;;;;3.68;100.00;95185.03;4968819;28;20201;-87
2021/12/25 04:09:24;;;;;;;0.60;0.60;;;;;;;3.64;100.00;95186.50;4961404;28;20261;-89
2021/12/25 04:11:51;;;;;;;0.87;0.60;;;;;;;3.62;100.00;95193.09;4967003;28;20228;-87
2021/12/25 04:14:21;;;;;;;0.83;0.83;;;;;;;3.57;100.00;95195.59;4962528;28;20215;-88
2021/12/25 04:16:48;;;;;;;0.87;0.87;;;;;;;3.46;100.00;95185.59;4967548;28;20255;-89
2021/12/25 04:19:16;;;;;;;1.10;1.00;;;;;;;3.35;100.00;95181.75;4969865;28;20223;-90
2021/12/25 04:21:51;;;;;;;1.97;1.20;;;;;;;3.30;100.00;95185.06;4978909;28;20202;-86
2021/12/25 04:24:18;;;;;;;1.53;0.90;;;;;;;3.31;100.00;95191.22;4969141;28;20216;-89
2021/12/25 04:26:47;;;;;;;1.27;1.00;;;;;;;3.21;100.00;95182.88;4966976;28;20211;-87
2021/12/25 04:29:34;;;;;;;1.23;0.90;;;;;;;3.11;100.00;95193.16;4962814;28;20230;-87
2021/12/25 04:32:32;;;;;;;1.00;0.90;;;;;;;3.00;100.00;95192.78;4962162;28;20224;-88
2021/12/25 04:49:46;;;;;;;2.43;1.00;;;;;;;2.95;100.00;95203.28;4952865;28;20220;-87
2021/12/25 05:03:41;;;;;;;1.70;1.30;;;;;;;2.92;100.00;95193.03;4963858;28;20282;-89
2021/12/25 05:06:33;;;;;;;1.50;1.30;;;;;;;2.94;100.00;95179.50;4960362;28;20272;-89
2021/12/25 05:09:01;;;;;;;2.20;1.83;;;;;;;2.95;100.00;95186.47;4970436;28;20213;-91
2021/12/25 05:11:28;;;;;;;2.87;1.93;;;;;;;2.89;100.00;95182.00;4966310;28;20314;-89
2021/12/25 05:13:55;;;;;;;2.50;1.57;;;;;;;2.87;100.00;95184.03;4970103;28;20213;-89
2021/12/25 05:16:42;;;;;;;1.40;1.27;;;;;;;2.87;100.00;95192.03;4958295;28;20342;-91
2021/12/25 05:19:10;;;;;;;1.80;1.43;;;;;;;2.78;100.00;95191.44;4960514;28;20202;-90
2021/12/25 05:21:38;;;;;;;1.43;1.30;;;;;;;2.79;100.00;95197.59;4971249;28;20232;-88
2021/12/25 05:24:06;;;;;;;1.73;1.27;;;;;;;2.74;100.00;95184.88;4960363;28;20209;-91
2021/12/25 05:26:41;;;;;;;2.53;1.33;;;;;;;2.77;100.00;95173.81;4957779;28;20209;-89
2021/12/25 05:29:08;;;;;;;2.43;1.33;;;;;;;2.72;100.00;95164.81;4965881;28;20230;-88
2021/12/25 05:31:37;;;;;;;1.63;1.20;;;;;;;2.77;100.00;95173.00;4975236;28;20243;-90
2021/12/25 05:34:22;;;;;;;6.03;3.50;;;;;;;2.71;100.00;95174.66;4964623;28;20267;-90
2021/12/25 05:36:56;;;;;;;3.27;2.00;;;;;;;2.67;100.00;95178.75;4960923;28;20204;-89
2021/12/25 05:39:49;;;;;;;1.50;1.30;;;;;;;2.60;100.00;95209.94;4986013;28;20211;-88
2021/12/25 05:42:18;;;;;;;1.83;1.37;;;;;;;2.59;100.00;95200.31;4981346;28;20219;-88
2021/12/25 05:44:46;;;;;;;2.77;1.37;;;;;;;2.58;100.00;95180.84;4967789;28;20208;-90
2021/12/25 05:47:32;;;;;;;2.80;1.40;;;;;;;2.63;100.00;95186.38;4969165;28;20200;-90
2021/12/25 05:50:28;;;;;;;1.83;1.70;;;;;;;2.63;100.00;95180.22;4971990;28;20252;-88
2021/12/25 05:53:01;;;;;;;2.40;1.77;;;;;;;2.63;100.00;95175.72;4964800;28;20243;-88
2021/12/25 05:55:47;;;;;;;1.80;1.53;;;;;;;2.72;100.00;95168.31;4982630;28;20223;-87
2021/12/25 05:58:47;;;;;;;2.00;1.47;;;;;;;2.86;100.00;95159.22;4972758;28;20208;-89
2021/12/25 06:01:34;;;;;;;1.57;1.30;;;;;;;2.87;100.00;95152.88;4986709;28;20287;-90
2021/12/25 06:04:02;;;;;;;2.43;1.20;;;;;;;2.93;100.00;95161.84;4979136;28;20226;-88
2021/12/25 06:06:30;;;;;;;2.13;1.27;;;;;;;2.91;100.00;95159.41;4976961;28;20234;-90
2021/12/25 06:08:58;;;;;;;2.97;1.40;;;;;;;2.99;100.00;95167.16;4966612;28;20236;-88
2021/12/25 06:11:26;;;;;;;1.20;1.10;;;;;;;2.96;100.00;95159.59;4981144;28;20228;-87
2021/12/25 06:14:05;;;;;;;1.10;0.90;;;;;;;3.04;100.00;95161.19;4972833;28;20235;-90
2021/12/25 06:16:41;;;;;;;0.70;0.70;;;;;;;3.15;100.00;95165.84;4985700;28;20204;-85
2021/12/25 06:19:12;;;;;;;0.70;0.70;;;;;;;3.33;100.00;95167.81;4969684;28;20212;-90
2021/12/25 06:21:56;;;;;;;0.70;0.70;;;;;;;3.50;100.00;95163.59;4963610;28;20196;-88
2021/12/25 06:25:00;;;;;;;1.43;0.90;;;;;;;3.59;100.00;95172.97;4982036;28;20299;-88
2021/12/25 06:27:47;;;;;;;1.27;1.10;;;;;;;3.49;100.00;95177.16;4988975;28;20224;-88
2021/12/25 06:30:25;;;;;;;3.87;1.73;;;;;;;3.36;100.00;95168.19;4977062;28;20208;-87
2021/12/25 06:32:58;;;;;;;1.87;1.60;;;;;;;3.30;100.00;95174.41;4971233;28;20298;-88
2021/12/25 06:35:44;;;;;;;1.20;1.10;;;;;;;3.23;100.00;95167.47;4984489;28;20497;-89
2021/12/25 06:38:19;;;;;;;1.80;1.20;;;;;;;3.14;100.00;95187.41;4977768;28;20200;-89
2021/12/25 06:40:53;;;;;;;1.67;1.33;;;;;;;2.98;100.00;95184.19;4975160;28;20327;-90
2021/12/25 06:43:20;;;;;;;2.73;1.67;;;;;;;2.86;100.00;95175.22;4968052;28;20256;-90
2021/12/25 06:45:47;;;;;;;2.50;1.60;;;;;;;2.86;100.00;95177.88;4975554;28;20251;-89
2021/12/25 06:48:16;;;;;;;2.57;1.70;;;;;;;2.84;100.00;95184.44;4970317;28;20220;-88
2021/12/25 06:51:02;;;;;;;2.30;1.57;;;;;;;2.78;100.00;95199.44;4975132;28;20250;-89
2021/12/25 06:53:52;;;;;;;1.70;1.40;;;;;;;2.69;100.00;95214.03;4965292;28;20297;-90
2021/12/25 06:56:56;;;;;;;1.83;1.50;;;;;;;2.62;100.00;95199.91;4964036;28;20209;-88
2021/12/25 06:59:28;;;;;;;2.17;1.53;;;;;;;2.55;100.00;95191.91;4972485;28;20204;-90
2021/12/25 07:01:56;;;;;;;2.13;1.53;;;;;;;2.50;100.00;95196.22;4982873;28;20237;-87
2021/12/25 07:04:55;;;;;;;3.77;1.77;;;;;;;2.55;100.00;95201.78;4979798;28;20197;-89
2021/12/25 07:07:40;;;;;;;2.93;1.97;;;;;;;2.49;100.00;95211.41;4984574;28;20284;-86
2021/12/25 07:10:18;;;;;;;3.63;2.03;;;;;;;2.41;100.00;95200.97;4962633;28;20208;-89
2021/12/25 07:12:56;;;;;;;4.13;2.13;;;;;;;2.44;100.00;95219.22;4971744;28;20217;-90
2021/12/25 07:15:37;;;;;;;2.20;1.80;;;;;;;2.45;100.00;95226.16;4970490;28;20211;-88
2021/12/25 07:18:23;;;;;;;3.17;2.23;;;;;;;2.49;100.00;95237.22;4987105;28;20290;-90
2021/12/25 07:21:02;;;;;;;2.33;2.00;;;;;;;2.46;100.00;95240.31;4972337;28;20263;-88
2021/12/25 07:23:59;;;;;;;3.00;2.27;;;;;;;2.47;100.00;95228.59;4931602;28;20214;-89
2021/12/25 07:26:35;;;;;;;2.63;2.10;;;;;;;2.46;100.00;95225.16;4958751;28;20214;-89
2021/12/25 07:29:15;;;;;;;5.00;2.87;;;;;;;2.51;100.00;95237.84;4979097;28;20235;-90
2021/12/25 07:31:42;;;;;;;3.30;2.50;;;;;;;2.50;100.00;95225.53;4979637;28;20291;-89
2021/12/25 07:34:09;;;;;;;3.83;2.80;;;;;;;2.63;100.00;95233.53;4966022;28;20223;-89
2021/12/25 07:36:36;;;;;;;6.63;3.97;;;;;;;2.63;100.00;95221.03;4968693;28;20240;-86
2021/12/25 07:39:04;;;;;;;15.47;10.00;;;;;;;2.65;100.00;95224.28;4981663;28;20221;-86
2021/12/25 07:41:31;;;;;;;7.70;5.00;;;;;;;2.68;100.00;95223.03;4968159;28;20207;-89
2021/12/25 07:44:00;;;;;;;8.00;5.50;;;;;;;2.78;100.00;95236.75;4972379;28;20239;-88
2021/12/25 07:46:42;;;;;;;11.30;4.40;;;;;;;2.80;100.00;95236.56;4960982;28;20216;-90
2021/12/25 07:49:15;;;;;;;5.80;3.63;;;;;;;2.85;100.00;95234.06;4967281;28;20218;-89
2021/12/25 07:51:42;;;;;;;3.70;2.47;;;;;;;2.93;100.00;95244.50;4988583;28;20231;-90
2021/12/25 07:54:10;;;;;;;5.87;3.30;;;;;;;3.00;100.00;95243.44;4989302;28;20206;-89
2021/12/25 07:56:37;;;;;;;6.93;4.20;;;;;;;3.10;100.00;95240.34;4964304;28;20307;-90
2021/12/25 07:59:04;;;;;;;18.87;9.97;;;;;;;3.10;100.00;95228.84;4973402;28;20211;-86
2021/12/25 08:01:34;;;;;;;4.70;2.60;;;;;;;2.99;100.00;95220.47;4962542;28;20208;-91
2021/12/25 08:04:04;;;;;;;3.10;2.57;;;;;;;2.93;100.00;95232.00;4964562;28;20327;-90
2021/12/25 08:06:31;;;;;;;3.43;2.33;;;;;;;2.90;100.00;95236.91;4971668;28;20267;-90
2021/12/25 08:09:00;;;;;;;3.90;2.50;;;;;;;2.97;100.00;95243.88;4963755;28;20210;-87
2021/12/25 08:11:28;;;;;;;4.57;2.47;;;;;;;2.96;100.00;95226.25;4970916;28;20272;-90
2021/12/25 08:13:55;;;;;;;6.13;3.77;;;;;;;2.99;100.00;95225.00;4960225;28;20208;-88
2021/12/25 08:16:23;;;;;;;3.90;2.60;;;;;;;3.06;100.00;95225.00;4969724;28;20205;-88
2021/12/25 08:18:50;;;;;;;3.23;2.40;;;;;;;3.04;100.00;95236.69;4969325;28;20263;-87
2021/12/25 08:21:37;;;;;;;8.97;5.10;;;;;;;3.11;100.00;95241.16;4984216;28;20313;-87
2021/12/25 08:24:23;;;;;;;6.50;4.10;;;;;;;3.19;100.00;95231.06;4980404;28;20215;-88
2021/12/25 08:27:19;;;;;;;4.77;2.73;;;;;;;3.30;100.00;95226.94;4971386;28;20289;-88
2021/12/25 08:30:10;;;;;;;4.80;2.63;;;;;;;3.37;100.00;95225.06;4986331;28;20214;-89
2021/12/25 08:32:58;;;;;;;3.47;2.57;;;;;;;3.42;100.00;95231.38;4989258;28;20243;-88
2021/12/25 08:35:44;;;;;;;3.10;2.23;;;;;;;3.42;100.00;95225.22;4985116;28;20240;-90
2021/12/25 08:38:14;;;;;;;3.37;2.40;;;;;;;3.45;100.00;95227.47;4973794;28;20259;-89
2021/12/25 08:40:43;;;;;;;4.33;2.37;;;;;;;3.47;100.00;95228.09;4982739;28;20266;-90
2021/12/25 08:43:11;;;;;;;4.10;2.70;;;;;;;3.47;100.00;95225.41;4973698;28;20208;-88
2021/12/25 08:45:44;;;;;;;3.30;2.67;;;;;;;3.56;100.00;95231.31;4977374;28;20205;-90
2021/12/25 08:48:15;;;;;;;3.67;2.90;;;;;;;3.54;100.00;95228.03;4960767;28;20213;-89
2021/12/25 08:50:46;;;;;;;4.30;2.63;;;;;;;3.62;100.00;95225.94;4985353;28;20228;-88
2021/12/25 08:53:15;;;;;;;4.33;2.70;;;;;;;3.63;100.00;95221.41;4969415;28;20330;-90
2021/12/25 08:55:43;;;;;;;3.83;3.07;;;;;;;3.67;100.00;95222.59;4977574;28;20228;-89
2021/12/25 08:58:11;;;;;;;3.47;2.90;;;;;;;3.74;100.00;95223.41;4984088;28;20220;-88
2021/12/25 09:00:38;;;;;;;4.20;3.40;;;;;;;3.77;100.00;95220.28;4968842;28;20272;-91
2021/12/25 09:03:05;;;;;;;7.70;5.50;;;;;;;3.77;100.00;95215.78;4984365;28;20273;-89
2021/12/25 09:05:34;;;;;;;15.23;9.43;;;;;;;3.85;100.00;95213.88;4990971;28;20228;-89
2021/12/25 09:08:01;;;;;;;15.10;8.63;;;;;;;3.87;100.00;95219.81;4971740;28;20208;-89
2021/12/25 09:10:31;;;;;;;14.13;8.37;;;;;;;3.91;100.00;95221.84;4960823;28;20263;-88
2021/12/25 09:12:59;;;;;;;11.63;7.10;;;;;;;3.95;100.00;95220.38;4983059;28;20244;-91
2021/12/25 09:15:26;;;;;;;5.70;4.07;;;;;;;3.97;100.00;95220.16;4973025;28;20204;-89
2021/12/25 09:17:54;;;;;;;4.73;3.60;;;;;;;4.03;100.00;95222.78;4970526;28;20215;-88
2021/12/25 09:20:23;;;;;;;4.17;3.70;;;;;;;4.06;100.00;95221.53;4979609;28;20247;-88
2021/12/25 09:22:51;;;;;;;4.87;3.80;;;;;;;4.07;100.00;95228.53;4978991;28;20204;-87
2021/12/25 09:25:18;;;;;;;3.80;3.27;;;;;;;4.08;100.00;95230.94;4974115;28;20200;-90
2021/12/25 09:27:46;;;;;;;8.03;3.40;;;;;;;4.12;100.00;95232.16;4991688;28;20220;-90
2021/12/25 09:30:15;;;;;;;4.67;3.00;;;;;;;4.12;100.00;95234.03;4991558;28;20208;-90
2021/12/25 09:32:42;;;;;;;4.20;3.07;;;;;;;4.21;100.00;95234.56;4970218;28;20270;-90
2021/12/25 09:35:10;;;;;;;4.87;3.60;;;;;;;4.22;100.00;95236.22;4970351;28;20230;-90
2021/12/25 09:37:37;;;;;;;5.63;4.00;;;;;;;4.36;100.00;95238.53;4964357;28;20276;-90
2021/12/25 09:40:06;;;;;;;4.87;4.07;;;;;;;4.39;100.00;95237.28;4963773;28;20201;-88
2021/12/25 09:42:34;;;;;;;6.63;4.70;;;;;;;4.43;100.00;95236.63;4972280;28;20205;-89
2021/12/25 09:45:04;;;;;;;5.40;4.33;;;;;;;4.52;100.00;95240.66;4967544;28;20221;-90
2021/12/25 09:47:31;;;;;;;5.43;3.97;;;;;;;4.57;100.00;95230.16;4967796;28;20303;-90
2021/12/25 09:49:58;;;;;;;7.20;4.37;;;;;;;4.70;100.00;95239.88;4955389;28;20263;-89
2021/12/25 09:52:25;;;;;;;6.93;3.93;;;;;;;4.78;100.00;95241.44;4958781;28;20229;-91
2021/12/25 09:54:52;;;;;;;4.63;3.50;;;;;;;4.80;100.00;95239.38;4965545;28;20224;-90
2021/12/25 09:57:19;;;;;;;4.37;2.73;;;;;;;4.90;100.00;95251.19;4970137;28;20225;-87
2021/12/25 09:59:47;;;;;;;3.67;2.73;;;;;;;4.99;100.00;95241.03;4966928;28;20259;-88
2021/12/25 10:02:17;;;;;;;3.60;2.70;;;;;;;5.14;100.00;95244.16;4985853;28;20208;-89
2021/12/25 10:04:46;;;;;;;4.43;3.47;;;;;;;5.28;100.00;95242.94;4958857;28;20201;-89
2021/12/25 10:07:32;;;;;;;5.10;3.80;;;;;;;5.43;100.00;95239.09;4965990;28;20205;-89
2021/12/25 10:10:04;;;;;;;5.90;4.00;;;;;;;5.56;100.00;95245.06;4960187;28;20206;-90
2021/12/25 10:12:38;;;;;;;6.17;3.47;;;;;;;5.68;100.00;95245.13;4980817;28;20221;-90
2021/12/25 10:15:08;;;;;;;4.50;3.67;;;;;;;5.88;100.00;95237.66;4967609;28;20244;-88
2021/12/25 10:17:46;;;;;;;4.67;3.27;;;;;;;6.13;100.00;95240.16;4963397;28;20308;-88
2021/12/25 10:20:15;;;;;;;4.30;3.27;;;;;;;6.32;100.00;95227.50;4958423;28;20212;-89
2021/12/25 10:23:05;;;;;;;6.47;3.50;;;;;;;6.49;100.00;95239.19;4960694;28;20227;-88
2021/12/25 10:25:38;;;;;;;6.13;4.07;;;;;;;6.38;100.00;95226.59;4965702;28;20244;-87
2021/12/25 10:28:08;;;;;;;3.70;3.17;;;;;;;6.27;100.00;95224.72;4958232;28;20245;-91
2021/12/25 10:30:45;;;;;;;4.37;3.10;;;;;;;6.21;100.00;95225.66;4971380;28;20223;-90
2021/12/25 10:33:25;;;;;;;4.27;2.97;;;;;;;6.24;100.00;95225.16;4953954;28;20225;-91
2021/12/25 10:35:52;;;;;;;4.33;3.50;;;;;;;6.28;100.00;95210.28;4953407;28;20241;-90
2021/12/25 10:38:22;;;;;;;4.47;3.47;;;;;;;6.36;100.00;95213.44;4967475;28;20260;-89
2021/12/25 10:40:49;;;;;;;5.37;3.60;;;;;;;6.40;100.00;95211.09;4977413;28;20276;-91
2021/12/25 10:43:22;;;;;;;4.50;2.70;;;;;;;6.46;100.00;95204.81;4956006;28;20420;-89
2021/12/25 10:45:59;;;;;;;3.53;2.23;;;;;;;6.43;100.00;95210.63;4958443;28;20211;-88
2021/12/25 10:48:30;;;;;;;4.27;2.97;;;;;;;6.47;100.00;95203.75;4980914;28;20300;-88
2021/12/25 10:50:58;;;;;;;3.70;3.00;;;;;;;6.54;100.00;95203.66;4983411;28;20214;-90
2021/12/25 10:53:27;;;;;;;3.40;2.30;;;;;;;6.56;100.00;95209.56;4963965;28;20291;-89
2021/12/25 10:56:04;;;;;;;4.10;2.63;;;;;;;6.61;100.00;95207.84;4970115;28;20291;-89
2021/12/25 10:58:31;;;;;;;5.47;2.80;;;;;;;6.68;100.00;95202.34;4965361;28;20224;-91
2021/12/25 11:00:59;;;;;;;4.10;2.70;;;;;;;6.66;100.00;95191.84;4960238;28;20212;-90
2021/12/25 11:03:30;;;;;;;5.23;3.50;;;;;;;6.72;100.00;95188.22;4973583;28;20217;-89
2021/12/25 11:06:03;;;;;;;3.67;3.10;;;;;;;6.66;99.81;95181.13;4962588;28;20209;-88
2021/12/25 11:08:30;;;;;;;5.77;3.30;;;;;;;6.73;98.91;95187.19;4982277;28;20209;-90
2021/12/25 11:11:00;;;;;;;5.93;3.20;;;;;;;6.83;98.78;95181.22;4968769;28;20209;-89
2021/12/25 11:13:30;;;;;;;5.40;3.80;;;;;;;6.92;98.74;95179.00;4967937;28;20514;-90
2021/12/25 11:16:04;;;;;;;5.80;3.83;;;;;;;7.00;98.86;95186.69;4968109;28;20213;-87
2021/12/25 11:18:50;;;;;;;5.37;3.67;;;;;;;7.06;98.76;95183.88;4980006;28;20216;-88
2021/12/25 11:21:17;;;;;;;4.73;3.50;;;;;;;7.15;98.27;95182.44;4957373;28;20205;-88
2021/12/25 11:23:46;;;;;;;5.93;3.43;;;;;;;7.25;97.33;95183.72;4961693;28;20209;-89
2021/12/25 11:26:14;;;;;;;4.37;2.70;;;;;;;7.23;96.55;95178.56;4969768;28;20303;-87
2021/12/25 11:28:43;;;;;;;4.73;3.00;;;;;;;7.28;95.84;95178.69;4961727;28;20229;-88
2021/12/25 11:31:10;;;;;;;3.67;2.70;;;;;;;7.32;93.76;95163.72;4954983;28;20292;-86
2021/12/25 11:33:40;;;;;;;3.60;2.73;;;;;;;7.32;94.18;95173.66;4960822;28;20225;-88
2021/12/25 11:36:07;;;;;;;4.23;2.93;;;;;;;7.21;94.99;95160.03;4966245;28;20256;-87
2021/12/25 11:38:34;;;;;;;4.50;3.27;;;;;;;7.25;95.69;95170.28;4960785;28;20232;-86
2021/12/25 11:41:06;;;;;;;4.77;3.17;;;;;;;7.34;97.05;95183.09;4965083;28;20233;-88
2021/12/25 11:43:40;;;;;;;3.33;2.50;;;;;;;7.35;96.40;95187.41;4978113;28;20219;-89
2021/12/25 11:46:08;;;;;;;3.97;2.90;;;;;;;7.40;97.80;95192.09;4956840;28;20221;-87
2021/12/25 11:48:37;;;;;;;3.87;2.70;;;;;;;7.45;100.00;95195.69;4958216;28;20212;-87
2021/12/25 11:51:08;;;;;;;2.40;2.17;;;;;;;7.43;100.00;95195.09;4961447;28;20216;-88
2021/12/25 11:53:52;;;;;;;4.13;3.10;;;;;;;7.44;100.00;95202.09;4967691;28;20245;-89
2021/12/25 11:59:11;;;;;;;3.73;3.10;;;;;;;7.29;100.00;95207.19;4952794;28;20213;-89
2021/12/25 12:01:42;;;;;;;2.67;2.33;;;;;;;7.31;100.00;95204.25;4978754;28;20268;-89
2021/12/25 12:04:19;;;;;;;2.50;2.30;;;;;;;7.24;100.00;95207.06;4965580;28;20277;-88
2021/12/25 12:07:01;;;;;;;3.90;2.60;;;;;;;7.20;100.00;95214.78;4955558;28;20287;-88
2021/12/25 12:09:55;;;;;;;2.40;2.10;;;;;;;7.12;100.00;95208.97;4964449;28;20209;-87
2021/12/25 12:12:48;;;;;;;2.50;1.90;;;;;;;7.01;100.00;95212.47;4967118;28;20221;-88
2021/12/25 12:15:25;;;;;;;4.20;2.50;;;;;;;7.00;100.00;95214.34;4969728;28;20223;-89
2021/12/25 12:18:34;;;;;;;2.83;2.53;;;;;;;7.03;100.00;95213.06;4965989;28;20217;-89
2021/12/25 12:21:08;;;;;;;2.97;2.43;;;;;;;6.99;100.00;95217.25;4962095;28;20209;-88
2021/12/25 12:23:46;;;;;;;2.77;2.47;;;;;;;7.03;100.00;95210.38;4970423;28;20523;-88
2021/12/25 12:26:14;;;;;;;3.00;2.40;;;;;;;7.01;100.00;95199.88;4984774;28;20311;-87
2021/12/25 12:28:47;;;;;;;2.70;2.27;;;;;;;7.04;100.00;95201.28;4966978;28;20520;-87
2021/12/25 12:31:37;;;;;;;3.47;2.50;;;;;;;7.00;100.00;95198.25;4970848;28;20301;-88
2021/12/25 12:34:34;;;;;;;3.17;2.47;;;;;;;7.03;100.00;95202.31;4959542;28;20315;-87
2021/12/25 12:37:30;;;;;;;2.77;2.10;;;;;;;6.97;100.00;95203.28;4967388;28;20209;-88
2021/12/25 12:40:31;;;;;;;2.13;1.93;;;;;;;7.00;100.00;95200.09;4959767;28;20223;-86
2021/12/25 12:43:02;;;;;;;2.80;2.40;;;;;;;7.04;100.00;95198.59;4963964;28;20209;-87
2021/12/25 12:45:33;;;;;;;2.30;2.10;;;;;;;7.11;100.00;95204.66;4966817;28;20320;-89
2021/12/25 12:48:13;;;;;;;2.70;2.40;;;;;;;7.12;100.00;95201.72;4956212;28;20220;-88
2021/12/25 12:50:42;;;;;;;2.87;2.30;;;;;;;7.14;100.00;95196.94;4980775;28;20602;-87
2021/12/25 12:53:10;;;;;;;2.40;2.20;;;;;;;7.17;100.00;95193.78;4967494;28;20221;-87